Terminal Aerodrome Forecast
Issued by NWS

Home | Current Version | Previous Version | Graphics & Text | Print | Product List | Glossary Off
Versions: 1 2 3 4 5 6 7 8 9 10 11 12 13 14 15 16 17 18 19 20 21 22 23

000
FTUS43 KMPX 210520
TAFRNH
TAF
KRNH 210520Z 2106/2206 13005KT 1SM BR OVC002
     FM210800 10005KT 3/4SM -DZ BR VV002
     FM211400 07006KT 1 1/2SM -RA BR OVC003
     FM212300 VRB02KT 2SM -DZ BR OVC004
     FM220300 00000KT 3/4SM BR VV003=

USA.gov is the U.S. government's official web portal to all federal, state and local government web resources and services.